Terminal Aerodrome Forecast
Issued by NWS

Home | Current Version | Previous Version | Text Only | Print | Product List | Glossary On
Versions: 1 2 3 4 5 6 7 8 9 10 11 12 13 14 15 16 17
000
FTUS43 KJKL 231700 RRA
TAFSME
TAF
KSME 231739Z 2318/2418 03005KT 6SM -RA BR OVC035
     FM232000 03005KT 6SM -RA BR OVC025
     FM240300 36005KT 5SM -RASN BR OVC015
     FM240800 33005KT 3SM -RASN BR OVC005
     FM241000 32006KT 3SM -SNRA BR BKN015
     FM241200 30006KT P6SM SCT025=

USA.gov is the U.S. government's official web portal to all federal, state and local government web resources and services.